createdAt,value
2019-05-10T00:01:27.952Z,11.10
2019-05-10T00:04:17.201Z,11.00
2019-05-10T00:07:06.679Z,11.10
2019-05-10T00:09:37.583Z,11.00
2019-05-10T00:12:21.874Z,11.00
2019-05-10T00:14:55.107Z,11.00
2019-05-10T00:17:27.221Z,11.00
2019-05-10T00:19:59.301Z,10.90
2019-05-10T00:22:31.772Z,10.90
2019-05-10T00:25:05.145Z,10.90
2019-05-10T00:27:37.384Z,11.00
2019-05-10T00:30:09.951Z,10.90
2019-05-10T00:32:42.383Z,10.90
2019-05-10T00:35:14.896Z,10.90
2019-05-10T00:37:46.923Z,10.90
2019-05-10T00:40:19.320Z,10.90
2019-05-10T00:42:51.423Z,10.90
2019-05-10T00:45:23.509Z,10.90
2019-05-10T00:47:55.614Z,10.90
2019-05-10T00:50:27.691Z,10.90
2019-05-10T00:53:00.121Z,10.90
2019-05-10T00:55:32.623Z,10.90
2019-05-10T00:58:05.163Z,10.90
2019-05-10T01:00:37.296Z,10.90
2019-05-10T01:03:10.837Z,10.90
2019-05-10T01:05:42.922Z,10.90
2019-05-10T01:08:15.040Z,10.90
2019-05-10T01:10:47.114Z,10.80
2019-05-10T01:13:19.658Z,10.80
2019-05-10T01:15:51.738Z,10.80
2019-05-10T01:18:23.769Z,10.80
2019-05-10T01:20:56.310Z,10.90
2019-05-10T01:23:28.431Z,10.90
2019-05-10T01:26:00.553Z,10.80
2019-05-10T01:28:32.668Z,10.90
2019-05-10T01:31:05.176Z,10.90
2019-05-10T01:33:37.985Z,10.80
2019-05-10T01:36:10.052Z,10.80
2019-05-10T01:38:42.160Z,10.80
2019-05-10T01:41:14.802Z,10.80
2019-05-10T01:43:46.921Z,10.80
2019-05-10T01:46:18.986Z,10.80
2019-05-10T01:48:51.084Z,10.80
2019-05-10T01:51:23.191Z,10.80
2019-05-10T01:53:55.301Z,10.80
2019-05-10T01:56:27.426Z,10.80
2019-05-10T01:58:59.549Z,10.70
2019-05-10T02:01:31.657Z,10.70
2019-05-10T02:04:03.975Z,10.70
2019-05-10T02:06:36.459Z,10.70
2019-05-10T02:09:09.774Z,10.70
2019-05-10T02:11:42.196Z,10.80
2019-05-10T02:14:14.747Z,10.70
2019-05-10T02:16:47.191Z,10.70
2019-05-10T02:19:19.635Z,10.70
2019-05-10T02:21:52.158Z,10.70
2019-05-10T02:24:24.526Z,10.70
2019-05-10T02:26:56.687Z,10.70
2019-05-10T02:29:28.799Z,10.70
2019-05-10T02:32:01.236Z,10.70
2019-05-10T02:34:33.982Z,10.70
2019-05-10T02:37:06.105Z,10.70
2019-05-10T02:39:38.213Z,10.80
2019-05-10T02:42:11.079Z,10.70
2019-05-10T02:44:43.240Z,10.70
2019-05-10T02:47:15.361Z,10.70
2019-05-10T02:49:47.463Z,10.70
2019-05-10T02:52:20.518Z,10.70
2019-05-10T02:54:52.854Z,10.70
2019-05-10T02:57:26.191Z,10.70
2019-05-10T03:00:00.104Z,10.70
2019-05-10T03:02:33.526Z,10.60
2019-05-10T03:05:06.315Z,10.60
2019-05-10T03:07:40.960Z,10.60
2019-05-10T03:10:14.280Z,10.60
2019-05-10T03:12:48.176Z,10.60
2019-05-10T03:15:21.196Z,10.60
2019-05-10T03:17:56.551Z,10.60
2019-05-10T03:20:30.401Z,10.50
2019-05-10T03:23:04.422Z,10.60
2019-05-10T03:25:36.735Z,10.50
2019-05-10T03:28:09.159Z,10.40
2019-05-10T03:30:41.375Z,10.40
2019-05-10T03:33:13.907Z,10.40
2019-05-10T03:35:46.457Z,10.40
2019-05-10T03:38:20.132Z,10.40
2019-05-10T03:40:53.103Z,10.30
2019-05-10T03:43:25.637Z,10.30
2019-05-10T03:45:58.181Z,10.30
2019-05-10T03:48:30.614Z,10.20
2019-05-10T03:51:03.130Z,10.20
2019-05-10T03:53:35.723Z,10.20
2019-05-10T03:56:07.887Z,10.20
2019-05-10T03:58:40.312Z,10.20
2019-05-10T04:01:13.066Z,10.20
2019-05-10T04:03:45.175Z,10.20
2019-05-10T04:06:17.827Z,10.20
2019-05-10T04:08:51.195Z,10.20
2019-05-10T04:11:23.350Z,10.20
2019-05-10T04:13:55.483Z,10.20
2019-05-10T04:16:27.587Z,10.20
2019-05-10T04:18:59.691Z,10.30
2019-05-10T04:21:32.242Z,10.30
2019-05-10T04:24:04.551Z,10.30
2019-05-10T04:26:37.861Z,10.30
2019-05-10T04:29:10.685Z,10.40
2019-05-10T04:31:43.231Z,10.30
2019-05-10T04:34:16.091Z,10.30
2019-05-10T04:36:48.532Z,10.30
2019-05-10T04:39:20.636Z,10.30
2019-05-10T04:41:53.172Z,10.40
2019-05-10T04:44:25.295Z,10.40
2019-05-10T04:46:58.400Z,10.40
2019-05-10T04:49:30.520Z,10.50
2019-05-10T04:52:03.372Z,10.50
2019-05-10T04:54:35.489Z,10.50
2019-05-10T04:57:07.915Z,10.60
2019-05-10T04:59:40.043Z,10.60
2019-05-10T05:02:12.166Z,10.60
2019-05-10T05:04:44.312Z,10.60
2019-05-10T05:07:16.834Z,10.60
2019-05-10T05:09:48.951Z,10.60
2019-05-10T05:12:21.744Z,10.50
2019-05-10T05:14:53.824Z,10.50
2019-05-10T05:17:25.942Z,10.50
2019-05-10T05:19:58.084Z,10.50
2019-05-10T05:22:30.525Z,10.50
2019-05-10T05:25:03.834Z,10.50
2019-05-10T05:27:36.474Z,10.50
2019-05-10T05:30:10.123Z,10.50
2019-05-10T05:32:44.297Z,10.50
2019-05-10T05:35:17.041Z,10.50
2019-05-10T05:37:49.154Z,10.50
2019-05-10T05:40:24.386Z,10.50
2019-05-10T05:42:57.362Z,10.60
2019-05-10T05:45:33.918Z,10.60
2019-05-10T05:48:07.497Z,10.70
2019-05-10T05:50:39.616Z,10.70
2019-05-10T05:53:11.731Z,10.80
2019-05-10T05:55:43.848Z,10.90
2019-05-10T05:58:25.656Z,10.90
2019-05-10T06:00:50.754Z,10.90
2019-05-10T06:03:29.379Z,11.00
2019-05-10T06:05:58.681Z,11.10
2019-05-10T06:08:30.794Z,11.00
2019-05-10T06:11:03.426Z,11.10
2019-05-10T06:13:35.535Z,11.20
2019-05-10T06:16:12.962Z,11.20
2019-05-10T06:18:46.690Z,11.20
2019-05-10T06:21:17.740Z,11.20
2019-05-10T06:23:49.585Z,11.20
2019-05-10T06:26:28.095Z,11.40
2019-05-10T06:28:59.801Z,11.50
2019-05-10T06:31:29.541Z,11.70
2019-05-10T06:34:02.067Z,11.80
2019-05-10T06:36:34.202Z,11.80
2019-05-10T06:39:08.858Z,11.70
2019-05-10T06:41:40.974Z,11.70
2019-05-10T06:44:13.111Z,11.70
2019-05-10T06:46:45.960Z,11.80
2019-05-10T06:49:18.079Z,11.90
2019-05-10T06:51:51.038Z,12.10
2019-05-10T06:54:23.379Z,12.10
2019-05-10T06:56:56.339Z,12.20
2019-05-10T06:59:28.775Z,12.30
2019-05-10T07:02:01.317Z,12.40
2019-05-10T07:04:37.854Z,12.50
2019-05-10T07:07:10.226Z,12.70
2019-05-10T07:10:04.175Z,12.90
2019-05-10T07:12:18.298Z,12.90
2019-05-10T07:14:50.403Z,12.90
2019-05-10T07:17:22.509Z,12.80
2019-05-10T07:19:55.379Z,12.70
2019-05-10T07:22:29.052Z,12.60
2019-05-10T07:25:04.066Z,12.60
2019-05-10T07:27:38.176Z,12.50
2019-05-10T07:30:10.237Z,12.50
2019-05-10T07:32:42.674Z,12.60
2019-05-10T07:35:15.421Z,12.70
2019-05-10T07:37:51.739Z,12.80
2019-05-10T07:40:21.805Z,12.90
2019-05-10T07:42:54.338Z,13.00
2019-05-10T07:45:27.350Z,13.10
2019-05-10T07:48:02.576Z,13.20
2019-05-10T07:50:34.751Z,13.50
2019-05-10T07:53:06.871Z,13.60
2019-05-10T07:55:38.987Z,13.50
2019-05-10T07:58:11.111Z,13.40
2019-05-10T08:00:46.668Z,13.50
2019-05-10T08:03:23.381Z,13.70
2019-05-10T08:05:55.002Z,13.90
2019-05-10T08:08:25.609Z,14.00
2019-05-10T08:10:59.354Z,14.10
2019-05-10T08:13:31.780Z,14.20
2019-05-10T08:16:05.373Z,14.20
2019-05-10T08:18:42.048Z,14.10
2019-05-10T08:21:21.709Z,14.00
2019-05-10T08:23:47.098Z,13.80
2019-05-10T08:26:22.495Z,13.70
2019-05-10T08:28:53.335Z,13.60
2019-05-10T08:31:26.521Z,13.90
2019-05-10T08:34:02.101Z,14.10
2019-05-10T08:36:37.348Z,14.40
2019-05-10T08:39:11.001Z,14.40
2019-05-10T08:41:45.524Z,14.40
2019-05-10T08:44:21.044Z,14.60
2019-05-10T08:46:52.495Z,14.90
2019-05-10T08:49:31.392Z,15.10
2019-05-10T08:51:59.465Z,15.40
2019-05-10T08:54:32.867Z,15.60
2019-05-10T08:57:05.544Z,15.60
2019-05-10T08:59:37.996Z,15.70
2019-05-10T09:02:12.595Z,15.80
2019-05-10T09:04:49.934Z,15.90
2019-05-10T09:07:18.570Z,15.90
2019-05-10T09:09:53.107Z,16.00
2019-05-10T09:12:25.188Z,16.10
2019-05-10T09:15:05.730Z,16.20
2019-05-10T09:17:32.463Z,16.30
2019-05-10T09:20:05.086Z,16.50
2019-05-10T09:22:38.631Z,16.70
2019-05-10T09:25:12.907Z,16.80
2019-05-10T09:27:45.251Z,16.70
2019-05-10T09:30:35.007Z,16.70
2019-05-10T09:33:08.805Z,16.70
2019-05-10T09:35:46.779Z,16.40
2019-05-10T09:38:13.015Z,16.10
2019-05-10T09:40:51.429Z,15.90
2019-05-10T09:43:23.564Z,15.90
2019-05-10T09:45:53.604Z,15.80
2019-05-10T09:48:26.041Z,15.80
2019-05-10T09:51:03.436Z,15.60
2019-05-10T09:53:33.320Z,15.50
2019-05-10T09:56:07.909Z,15.50
2019-05-10T09:58:40.078Z,15.70
2019-05-10T10:01:17.974Z,15.90
2019-05-10T10:03:48.288Z,16.30
2019-05-10T10:06:20.852Z,16.70
2019-05-10T10:08:53.540Z,17.00
2019-05-10T10:11:27.800Z,17.10
2019-05-10T10:14:02.180Z,17.10
2019-05-10T10:16:34.702Z,17.20
2019-05-10T10:19:07.265Z,17.30
2019-05-10T10:21:40.209Z,17.50
2019-05-10T10:24:17.411Z,17.60
2019-05-10T10:26:48.196Z,17.70
2019-05-10T10:29:20.133Z,17.90
2019-05-10T10:31:55.541Z,18.10
2019-05-10T10:34:27.256Z,18.20
2019-05-10T10:36:59.733Z,18.10
2019-05-10T10:39:33.036Z,18.10
2019-05-10T10:42:08.804Z,18.30
2019-05-10T10:44:40.623Z,18.30
2019-05-10T10:47:13.204Z,18.30
2019-05-10T10:49:45.745Z,18.20
2019-05-10T10:52:17.862Z,17.70
2019-05-10T10:54:50.290Z,17.20
2019-05-10T10:57:22.340Z,16.90
2019-05-10T10:59:54.806Z,17.00
2019-05-10T11:02:33.100Z,17.50
2019-05-10T11:05:01.950Z,17.90
2019-05-10T11:07:38.092Z,18.20
2019-05-10T11:10:16.101Z,18.30
2019-05-10T11:12:42.934Z,18.30
2019-05-10T11:15:16.402Z,18.30
2019-05-10T11:17:50.674Z,18.20
2019-05-10T11:20:23.172Z,18.00
2019-05-10T11:22:55.387Z,17.90
2019-05-10T11:25:27.630Z,17.80
2019-05-10T11:28:01.775Z,17.60
2019-05-10T11:30:34.904Z,17.60
2019-05-10T11:33:22.883Z,17.30
2019-05-10T11:35:41.673Z,17.40
2019-05-10T11:38:16.229Z,17.70
2019-05-10T11:40:47.978Z,18.10
2019-05-10T11:43:27.031Z,18.40
2019-05-10T11:46:01.245Z,18.70
2019-05-10T11:48:37.096Z,19.10
2019-05-10T11:51:12.455Z,19.20
2019-05-10T11:53:41.701Z,18.90
2019-05-10T11:56:15.585Z,18.50
2019-05-10T11:58:54.894Z,18.40
2019-05-10T12:01:22.330Z,18.10
2019-05-10T12:03:54.960Z,18.10
2019-05-10T12:06:27.075Z,18.10
2019-05-10T12:09:02.102Z,18.30
2019-05-10T12:14:07.804Z,18.70
2019-05-10T12:16:41.961Z,18.80
2019-05-10T12:19:20.740Z,18.80
2019-05-10T12:21:55.607Z,19.00
2019-05-10T12:24:39.024Z,19.00
2019-05-10T12:26:06.387Z,18.40
2019-05-10T12:29:31.635Z,18.70
2019-05-10T12:32:04.331Z,18.40
2019-05-10T12:34:36.461Z,18.20
2019-05-10T12:37:09.323Z,17.90
2019-05-10T12:39:41.450Z,17.70
2019-05-10T12:42:14.559Z,17.60
2019-05-10T12:44:48.244Z,17.50
2019-05-10T12:47:21.480Z,17.50
2019-05-10T12:50:01.810Z,17.60
2019-05-10T12:52:28.595Z,17.70
2019-05-10T12:55:01.380Z,17.70
2019-05-10T12:57:33.921Z,17.60
2019-05-10T13:00:13.304Z,17.50
2019-05-10T13:02:44.688Z,17.40
2019-05-10T13:05:16.269Z,17.40
2019-05-10T13:07:48.784Z,17.40
2019-05-10T13:10:21.533Z,17.30
2019-05-10T13:12:54.367Z,17.30
2019-05-10T13:15:31.239Z,17.40
2019-05-10T13:18:00.767Z,17.60
2019-05-10T13:20:36.760Z,17.30
2019-05-10T13:23:09.991Z,17.10
2019-05-10T13:25:40.794Z,16.90
2019-05-10T13:28:13.031Z,16.80
2019-05-10T13:30:45.567Z,16.80
2019-05-10T13:33:28.444Z,16.80
2019-05-10T13:35:56.670Z,16.80
2019-05-10T13:38:27.480Z,16.80
2019-05-10T13:40:59.596Z,16.90
2019-05-10T13:43:32.636Z,17.00
2019-05-10T13:46:04.843Z,17.20
2019-05-10T13:48:37.696Z,17.30
2019-05-10T13:51:10.224Z,17.30
2019-05-10T13:53:42.338Z,17.30
2019-05-10T13:56:14.819Z,17.40
2019-05-10T13:58:47.245Z,17.40
2019-05-10T14:01:19.675Z,17.50
2019-05-10T14:04:00.356Z,17.50
2019-05-10T14:06:25.846Z,17.40
2019-05-10T14:08:58.390Z,17.60
2019-05-10T14:11:34.227Z,17.70
2019-05-10T14:14:04.941Z,17.90
2019-05-10T14:16:38.440Z,18.00
2019-05-10T14:19:15.928Z,18.00
2019-05-10T14:21:45.081Z,18.10
2019-05-10T14:24:19.848Z,18.20
2019-05-10T14:26:57.255Z,18.20
2019-05-10T14:29:34.314Z,18.10
2019-05-10T14:32:00.151Z,18.00
2019-05-10T14:34:38.062Z,18.00
2019-05-10T14:37:07.051Z,18.00
2019-05-10T14:39:39.791Z,18.00
2019-05-10T14:42:11.864Z,17.90
2019-05-10T14:44:44.500Z,17.90
2019-05-10T14:47:16.665Z,17.90
2019-05-10T14:49:48.862Z,18.00
2019-05-10T14:52:22.675Z,18.10
2019-05-10T14:54:56.745Z,18.10
2019-05-10T14:57:29.007Z,18.00
2019-05-10T15:00:02.714Z,17.90
2019-05-10T15:02:35.364Z,18.00
2019-05-10T15:05:16.127Z,18.10
2019-05-10T15:07:41.678Z,18.00
2019-05-10T15:10:13.790Z,17.90
2019-05-10T15:12:46.291Z,17.80
2019-05-10T15:15:19.256Z,17.70
2019-05-10T15:17:55.021Z,17.70
2019-05-10T15:20:25.362Z,17.70
2019-05-10T15:22:58.283Z,17.70
2019-05-10T15:25:30.528Z,17.60
2019-05-10T15:28:02.633Z,17.60
2019-05-10T15:30:39.215Z,17.70
2019-05-10T15:33:08.606Z,17.60
2019-05-10T15:35:45.836Z,17.60
2019-05-10T15:38:15.522Z,17.50
2019-05-10T15:40:48.695Z,17.40
2019-05-10T15:43:20.804Z,17.30
2019-05-10T15:45:54.986Z,17.20
2019-05-10T15:48:28.328Z,17.10
2019-05-10T15:51:00.756Z,16.90
2019-05-10T15:53:33.195Z,16.80
2019-05-10T15:56:06.211Z,16.60
2019-05-10T15:59:23.582Z,16.50
2019-05-10T16:01:14.387Z,16.50
2019-05-10T16:03:46.106Z,16.40
2019-05-10T16:06:18.779Z,16.30
2019-05-10T16:08:50.858Z,16.30
2019-05-10T16:11:23.742Z,16.20
2019-05-10T16:14:00.136Z,16.30
2019-05-10T16:16:30.394Z,16.40
2019-05-10T16:19:04.310Z,16.50
2019-05-10T16:21:36.422Z,16.60
2019-05-10T16:24:09.385Z,16.70
2019-05-10T16:26:41.954Z,16.80
2019-05-10T16:29:14.492Z,16.70
2019-05-10T16:31:46.927Z,16.60
2019-05-10T16:34:19.042Z,16.50
2019-05-10T16:36:51.469Z,16.40
2019-05-10T16:39:24.003Z,16.20
2019-05-10T16:41:56.126Z,16.10
2019-05-10T16:44:28.723Z,16.10
2019-05-10T16:47:00.831Z,16.00
2019-05-10T16:49:33.178Z,16.00
2019-05-10T16:52:05.619Z,16.00
2019-05-10T16:54:38.161Z,16.00
2019-05-10T16:57:10.282Z,15.90
2019-05-10T16:59:42.852Z,15.80
2019-05-10T17:02:15.287Z,15.80
2019-05-10T17:04:47.732Z,15.70
2019-05-10T17:07:20.656Z,15.60
2019-05-10T17:09:54.578Z,15.50
2019-05-10T17:12:28.984Z,15.50
2019-05-10T17:15:02.869Z,15.50
2019-05-10T17:17:37.140Z,15.40
2019-05-10T17:20:14.259Z,15.40
2019-05-10T17:22:43.396Z,15.40
2019-05-10T17:25:17.234Z,15.30
2019-05-10T17:27:50.443Z,15.30
2019-05-10T17:30:27.747Z,15.20
2019-05-10T17:33:03.301Z,15.20
2019-05-10T17:35:36.609Z,15.20
2019-05-10T17:38:07.862Z,15.10
2019-05-10T17:40:42.227Z,15.10
2019-05-10T17:43:20.831Z,15.10
2019-05-10T17:45:48.988Z,15.00
2019-05-10T17:48:21.111Z,15.00
2019-05-10T17:50:53.597Z,15.00
2019-05-10T17:53:27.138Z,14.90
2019-05-10T17:56:02.769Z,14.90
2019-05-10T17:58:34.829Z,14.80
2019-05-10T18:01:08.118Z,14.80
2019-05-10T18:03:40.878Z,14.80
2019-05-10T18:06:23.672Z,14.70
2019-05-10T18:08:47.895Z,14.70
2019-05-10T18:11:20.013Z,14.60
2019-05-10T18:13:52.129Z,14.60
2019-05-10T18:16:24.872Z,14.60
2019-05-10T18:18:58.088Z,14.50
2019-05-10T18:21:30.195Z,14.50
2019-05-10T18:24:02.307Z,14.40
2019-05-10T18:26:39.595Z,14.40
2019-05-10T18:29:09.489Z,14.30
2019-05-10T18:31:42.036Z,14.30
2019-05-10T18:34:15.256Z,14.20
2019-05-10T18:36:51.983Z,14.20
2019-05-10T18:39:21.758Z,14.10
2019-05-10T18:41:53.872Z,14.00
2019-05-10T18:44:26.728Z,14.00
2019-05-10T18:46:59.596Z,13.90
2019-05-10T18:49:33.002Z,13.90
2019-05-10T18:52:23.148Z,13.80
2019-05-10T18:55:06.828Z,13.70
2019-05-10T18:58:41.193Z,13.90
2019-05-10T19:01:14.971Z,13.30
2019-05-10T19:03:49.422Z,13.30
2019-05-10T19:06:23.089Z,13.20
2019-05-10T19:08:57.845Z,13.10
2019-05-10T19:11:38.868Z,13.00
2019-05-10T19:14:09.345Z,12.90
2019-05-10T19:16:45.161Z,12.80
2019-05-10T19:19:18.558Z,12.70
2019-05-10T19:21:52.571Z,12.50
2019-05-10T19:24:30.423Z,12.30
2019-05-10T19:27:07.090Z,12.00
2019-05-10T19:29:38.544Z,11.80
2019-05-10T19:32:18.182Z,11.70
2019-05-10T19:34:56.944Z,11.60
2019-05-10T19:37:31.391Z,11.50
2019-05-10T19:39:59.651Z,11.30
2019-05-10T19:42:51.017Z,11.30
2019-05-10T19:45:24.533Z,11.30
2019-05-10T19:47:58.643Z,11.20
2019-05-10T19:58:10.648Z,11.00
2019-05-10T20:00:44.241Z,10.90
2019-05-10T20:03:22.291Z,10.80
2019-05-10T20:10:41.973Z,10.80
2019-05-10T20:13:38.250Z,10.70
2019-05-10T20:16:12.217Z,10.60
2019-05-10T20:23:26.191Z,10.60
2019-05-10T20:26:05.248Z,10.60
2019-05-10T20:28:47.638Z,10.50
2019-05-10T20:31:20.821Z,10.40
2019-05-10T20:33:53.918Z,10.40
2019-05-10T20:36:28.867Z,10.50
2019-05-10T20:46:21.135Z,10.50
2019-05-10T20:49:05.708Z,10.40
2019-05-10T20:51:40.734Z,10.30
2019-05-10T20:54:14.979Z,10.10
2019-05-10T20:56:49.674Z,10.00
2019-05-10T20:59:34.367Z,10.00
2019-05-10T21:02:08.919Z,9.90
2019-05-10T21:16:28.330Z,9.70
2019-05-10T21:19:01.846Z,9.60
2019-05-10T21:25:06.275Z,9.60
2019-05-10T21:35:12.947Z,9.70
2019-05-10T21:45:24.848Z,9.80
2019-05-10T21:47:58.141Z,9.70
2019-05-10T22:05:25.235Z,9.80
